createdAt,value
2018-01-11T00:00:08.678Z,96839.47
2018-01-11T00:02:36.185Z,96843.41
2018-01-11T00:05:03.698Z,96843.13
2018-01-11T00:07:31.381Z,96845.29
2018-01-11T00:09:58.921Z,96848.43
2018-01-11T00:12:26.488Z,96848.45
2018-01-11T00:14:54.216Z,96849.72
2018-01-11T00:17:22.357Z,96844.82
2018-01-11T00:19:49.872Z,96851.95
2018-01-11T00:22:17.433Z,96848.53
2018-01-11T00:24:44.992Z,96839.55
2018-01-11T00:27:12.495Z,96844.69
2018-01-11T00:29:40.314Z,96846.06
2018-01-11T00:32:07.822Z,96841.67
2018-01-11T00:34:35.333Z,96842.53
2018-01-11T00:37:03.179Z,96845.55
2018-01-11T00:39:30.777Z,96842.30
2018-01-11T00:41:58.289Z,96844.30
2018-01-11T00:44:25.874Z,96848.09
2018-01-11T00:46:53.442Z,96846.51
2018-01-11T00:49:21.004Z,96846.24
2018-01-11T00:51:48.552Z,96851.78
2018-01-11T00:54:16.314Z,96848.97
2018-01-11T00:56:43.885Z,96850.23
2018-01-11T00:59:11.399Z,96849.11
2018-01-11T01:01:38.940Z,96843.33
2018-01-11T01:04:06.450Z,96851.20
2018-01-11T01:06:33.957Z,96852.95
2018-01-11T01:09:01.494Z,96853.42
2018-01-11T01:11:29.024Z,96851.63
2018-01-11T01:13:56.682Z,96856.75
2018-01-11T01:16:24.186Z,96855.16
2018-01-11T01:18:51.699Z,96857.32
2018-01-11T01:21:19.233Z,96863.07
2018-01-11T01:23:46.765Z,96850.59
2018-01-11T01:26:14.505Z,96856.62
2018-01-11T01:28:42.041Z,96859.11
2018-01-11T01:31:09.550Z,96865.27
2018-01-11T01:33:37.193Z,96861.16
2018-01-11T01:36:04.697Z,96856.13
2018-01-11T01:38:32.205Z,96853.59
2018-01-11T01:40:59.750Z,96856.41
2018-01-11T01:43:27.262Z,96854.23
2018-01-11T01:45:54.778Z,96857.77
2018-01-11T01:48:34.261Z,96858.39
2018-01-11T01:51:01.774Z,96866.81
2018-01-11T01:53:29.306Z,96863.67
2018-01-11T01:55:57.148Z,96865.19
2018-01-11T01:58:24.651Z,96865.69
2018-01-11T02:00:52.185Z,96870.09
2018-01-11T02:03:19.950Z,96862.97
2018-01-11T02:05:47.515Z,96869.88
2018-01-11T02:08:15.180Z,96869.82
2018-01-11T02:10:42.747Z,96864.87
2018-01-11T02:13:10.257Z,96865.09
2018-01-11T02:15:38.159Z,96861.30
2018-01-11T02:18:05.661Z,96859.20
2018-01-11T02:20:33.175Z,96855.75
2018-01-11T02:23:00.722Z,96850.25
2018-01-11T02:25:28.253Z,96850.41
2018-01-11T02:27:55.877Z,96853.52
2018-01-11T02:30:23.391Z,96844.44
2018-01-11T02:32:50.906Z,96845.23
2018-01-11T02:35:18.446Z,96850.25
2018-01-11T02:37:46.018Z,96846.97
2018-01-11T02:40:13.543Z,96848.84
2018-01-11T02:42:41.294Z,96852.05
2018-01-11T02:45:08.801Z,96853.09
2018-01-11T02:47:36.305Z,96853.48
2018-01-11T02:50:04.087Z,96858.09
2018-01-11T02:52:31.656Z,96852.79
2018-01-11T02:54:59.205Z,96853.90
2018-01-11T02:57:26.751Z,96852.48
2018-01-11T02:59:54.270Z,96857.23
2018-01-11T03:02:21.958Z,96855.17
2018-01-11T03:04:49.543Z,96852.52
2018-01-11T03:07:17.049Z,96855.77
2018-01-11T03:09:44.590Z,96846.90
2018-01-11T03:12:12.118Z,96856.43
2018-01-11T03:14:39.997Z,96855.97
2018-01-11T03:17:07.545Z,96850.71
2018-01-11T03:19:35.054Z,96851.27
2018-01-11T03:22:02.595Z,96856.58
2018-01-11T03:24:30.119Z,96861.05
2018-01-11T03:26:57.683Z,96854.84
2018-01-11T03:29:25.192Z,96860.81
2018-01-11T03:31:52.701Z,96863.98
2018-01-11T03:34:20.235Z,96858.97
2018-01-11T03:36:47.885Z,96861.99
2018-01-11T03:39:15.388Z,96861.45
2018-01-11T03:41:42.901Z,96852.97
2018-01-11T03:44:10.436Z,96856.20
2018-01-11T03:46:37.946Z,96859.91
2018-01-11T03:49:05.786Z,96859.60
2018-01-11T03:51:33.297Z,96863.43
2018-01-11T03:54:00.802Z,96865.46
2018-01-11T03:56:28.341Z,96867.90
2018-01-11T03:58:55.857Z,96868.89
2018-01-11T04:01:23.400Z,96873.80
2018-01-11T04:03:50.910Z,96871.64
2018-01-11T04:06:18.727Z,96875.63
2018-01-11T04:08:46.286Z,96882.11
2018-01-11T04:11:13.794Z,96889.75
2018-01-11T04:13:41.335Z,96890.34
2018-01-11T04:16:08.850Z,96885.59
2018-01-11T04:18:36.626Z,96885.13
2018-01-11T04:21:04.184Z,96883.81
2018-01-11T04:23:31.757Z,96889.09
2018-01-11T04:25:59.353Z,96890.28
2018-01-11T04:28:26.886Z,96898.77
2018-01-11T04:30:54.623Z,96892.28
2018-01-11T04:33:22.190Z,96890.48
2018-01-11T04:35:49.745Z,96896.26
2018-01-11T04:38:17.302Z,96903.73
2018-01-11T04:40:44.819Z,96896.41
2018-01-11T04:43:12.625Z,96899.80
2018-01-11T04:45:40.125Z,96901.96
2018-01-11T04:48:07.641Z,96906.27
2018-01-11T04:50:35.177Z,96904.52
2018-01-11T04:53:02.686Z,96907.97
2018-01-11T04:55:30.376Z,96909.99
2018-01-11T04:57:57.898Z,96907.20
2018-01-11T05:00:25.410Z,96912.03
2018-01-11T05:02:52.946Z,96910.55
2018-01-11T05:05:20.964Z,96914.11
2018-01-11T05:07:48.508Z,96915.06
2018-01-11T05:10:16.013Z,96912.67
2018-01-11T05:12:43.557Z,96919.70
2018-01-11T05:15:11.100Z,96924.66
2018-01-11T05:17:38.658Z,96923.20
2018-01-11T05:20:06.230Z,96931.52
2018-01-11T05:22:33.776Z,96929.63
2018-01-11T05:25:01.291Z,96934.42
2018-01-11T05:27:28.846Z,96932.42
2018-01-11T05:29:56.361Z,96937.92
2018-01-11T05:32:24.118Z,96939.73
2018-01-11T05:34:51.858Z,96937.63
2018-01-11T05:37:19.358Z,96938.90
2018-01-11T05:39:46.868Z,96938.08
2018-01-11T05:42:14.538Z,96937.28
2018-01-11T05:44:42.042Z,96943.22
2018-01-11T05:47:09.550Z,96943.10
2018-01-11T05:49:37.235Z,96941.98
2018-01-11T05:52:04.739Z,96946.17
2018-01-11T05:54:32.250Z,96944.84
2018-01-11T05:56:59.808Z,96947.92
2018-01-11T05:59:27.370Z,96949.99
2018-01-11T06:01:54.934Z,96950.14
2018-01-11T06:04:22.793Z,96952.65
2018-01-11T06:06:50.298Z,96956.65
2018-01-11T06:09:17.842Z,96954.20
2018-01-11T06:11:45.692Z,96959.77
2018-01-11T06:14:13.233Z,96960.18
2018-01-11T06:16:40.741Z,96960.05
2018-01-11T06:19:08.433Z,96962.70
2018-01-11T06:21:35.938Z,96971.91
2018-01-11T06:24:03.449Z,96971.02
2018-01-11T06:26:30.985Z,96975.40
2018-01-11T06:28:58.501Z,96971.55
2018-01-11T06:31:26.250Z,96975.77
2018-01-11T06:33:53.762Z,96974.50
2018-01-11T06:36:21.273Z,96976.66
2018-01-11T06:38:48.825Z,96975.34
2018-01-11T06:41:16.385Z,96975.48
2018-01-11T06:43:43.935Z,96976.58
2018-01-11T06:46:11.441Z,96980.45
2018-01-11T06:48:38.951Z,96980.06
2018-01-11T06:51:06.498Z,96976.67
2018-01-11T06:53:34.003Z,96983.52
2018-01-11T06:56:01.738Z,96985.98
2018-01-11T06:58:29.298Z,96985.46
2018-01-11T07:00:56.857Z,96990.78
2018-01-11T07:03:24.419Z,96990.89
2018-01-11T07:05:51.980Z,96996.31
2018-01-11T07:08:19.537Z,96998.72
2018-01-11T07:10:47.056Z,97003.97
2018-01-11T07:13:14.626Z,97004.26
2018-01-11T07:15:42.131Z,97006.77
2018-01-11T07:18:09.666Z,97005.70
2018-01-11T07:20:37.239Z,97009.77
2018-01-11T07:23:04.787Z,97012.43
2018-01-11T07:25:32.347Z,97009.00
2018-01-11T07:27:59.904Z,97008.18
2018-01-11T07:30:27.473Z,97008.30
2018-01-11T07:32:55.065Z,97012.49
2018-01-11T07:35:22.579Z,97017.98
2018-01-11T07:37:50.122Z,97017.31
2018-01-11T07:40:17.657Z,97017.70
2018-01-11T07:42:45.166Z,97020.36
2018-01-11T07:45:13.003Z,97017.84
2018-01-11T07:47:40.510Z,97024.58
2018-01-11T07:50:08.030Z,97023.16
2018-01-11T07:52:35.928Z,97026.65
2018-01-11T07:55:03.506Z,97036.08
2018-01-11T07:57:31.013Z,97037.16
2018-01-11T07:59:58.787Z,97041.63
2018-01-11T08:02:26.297Z,97049.91
2018-01-11T08:04:53.803Z,97053.25
2018-01-11T08:07:21.364Z,97060.58
2018-01-11T08:09:48.882Z,97060.47
2018-01-11T08:12:16.688Z,97057.25
2018-01-11T08:14:44.202Z,97061.73
2018-01-11T08:17:11.709Z,97063.05
2018-01-11T08:19:39.260Z,97061.44
2018-01-11T08:22:06.766Z,97066.27
2018-01-11T08:24:35.083Z,97065.95
2018-01-11T08:27:02.635Z,97071.02
2018-01-11T08:29:30.142Z,97070.67
2018-01-11T08:31:57.658Z,97074.39
2018-01-11T08:34:25.208Z,97078.84
2018-01-11T08:36:52.714Z,97078.08
2018-01-11T08:39:20.225Z,97079.38
2018-01-11T08:41:47.806Z,97082.64
2018-01-11T08:44:15.631Z,97087.73
2018-01-11T08:46:43.294Z,97086.80
2018-01-11T08:49:10.905Z,97089.66
2018-01-11T08:51:38.452Z,97087.67
2018-01-11T08:54:06.010Z,97084.95
2018-01-11T08:56:33.578Z,97090.59
2018-01-11T08:59:01.094Z,97091.19
2018-01-11T09:01:28.611Z,97096.97
2018-01-11T09:03:56.186Z,97097.41
2018-01-11T09:06:23.698Z,97100.55
2018-01-11T09:08:51.211Z,97106.39
2018-01-11T09:11:18.758Z,97108.83
2018-01-11T09:13:46.278Z,97109.08
2018-01-11T09:16:13.838Z,97112.59
2018-01-11T09:18:41.397Z,97110.61
2018-01-11T09:21:08.958Z,97112.59
2018-01-11T09:23:37.335Z,97117.20
2018-01-11T09:26:04.908Z,97118.09
2018-01-11T09:28:32.454Z,97117.88
2018-01-11T09:31:00.040Z,97130.17
2018-01-11T09:33:27.602Z,97125.31
2018-01-11T09:35:55.134Z,97126.66
2018-01-11T09:38:22.690Z,97122.64
2018-01-11T09:40:50.233Z,97124.64
2018-01-11T09:43:17.827Z,97122.38
2018-01-11T09:45:45.366Z,97130.55
2018-01-11T09:48:12.929Z,97130.64
2018-01-11T09:50:41.408Z,97133.75
2018-01-11T09:53:08.992Z,97135.00
2018-01-11T09:55:36.525Z,97132.16
2018-01-11T09:58:04.085Z,97135.44
2018-01-11T10:00:31.634Z,97129.94
2018-01-11T10:02:59.203Z,97136.28
2018-01-11T10:05:26.762Z,97133.77
2018-01-11T10:07:54.329Z,97133.48
2018-01-11T10:10:21.880Z,97138.08
2018-01-11T10:12:49.440Z,97139.48
2018-01-11T10:15:17.004Z,97131.28
2018-01-11T10:17:44.966Z,97137.21
2018-01-11T10:20:12.527Z,97129.13
2018-01-11T10:22:40.098Z,97135.06
2018-01-11T10:25:07.833Z,97129.22
2018-01-11T10:27:35.412Z,97125.06
2018-01-11T10:30:02.978Z,97131.71
2018-01-11T10:32:30.527Z,97125.52
2018-01-11T10:34:58.037Z,97126.91
2018-01-11T10:37:25.953Z,97129.89
2018-01-11T10:39:53.512Z,97128.65
2018-01-11T10:42:21.071Z,97129.21
2018-01-11T10:44:48.621Z,97127.17
2018-01-11T10:47:16.139Z,97128.23
2018-01-11T10:49:43.650Z,97125.46
2018-01-11T10:52:11.221Z,97120.30
2018-01-11T10:54:39.071Z,97126.27
2018-01-11T10:57:06.581Z,97126.16
2018-01-11T10:59:34.394Z,97124.33
2018-01-11T11:02:07.393Z,97121.54
2018-01-11T11:04:34.939Z,97122.52
2018-01-11T11:07:02.497Z,97126.11
2018-01-11T11:09:30.709Z,97127.84
2018-01-11T11:11:58.261Z,97129.69
2018-01-11T11:14:25.777Z,97127.06
2018-01-11T11:16:53.281Z,97125.57
2018-01-11T11:19:20.825Z,97130.57
2018-01-11T11:21:48.413Z,97130.21
2018-01-11T11:24:16.058Z,97129.72
2018-01-11T11:26:43.775Z,97127.63
2018-01-11T11:29:11.282Z,97126.91
2018-01-11T11:31:38.910Z,97121.77
2018-01-11T11:34:06.653Z,97124.16
2018-01-11T11:36:34.172Z,97127.91
2018-01-11T11:39:01.698Z,97119.89
2018-01-11T11:41:30.233Z,97123.65
2018-01-11T11:43:57.743Z,97120.30
2018-01-11T11:46:25.288Z,97117.77
2018-01-11T11:48:52.863Z,97111.17
2018-01-11T11:51:20.406Z,97116.55
2018-01-11T11:53:47.923Z,97112.13
2018-01-11T11:56:16.447Z,97114.41
2018-01-11T11:58:44.295Z,97128.71
2018-01-11T12:01:11.805Z,97120.23
2018-01-11T12:03:39.533Z,97120.91
2018-01-11T12:06:07.050Z,97124.48
2018-01-11T12:08:34.566Z,97121.66
2018-01-11T12:11:02.110Z,97119.87
2018-01-11T12:13:29.669Z,97126.46
2018-01-11T12:15:57.215Z,97123.24
2018-01-11T12:18:24.725Z,97130.63
2018-01-11T12:20:52.266Z,97129.50
2018-01-11T12:23:19.851Z,97132.63
2018-01-11T12:25:48.198Z,97132.53
2018-01-11T12:28:15.726Z,97136.76
2018-01-11T12:30:43.403Z,97136.11
2018-01-11T12:33:10.970Z,97141.41
2018-01-11T12:35:38.522Z,97137.48
2018-01-11T12:38:06.113Z,97142.18
2018-01-11T12:40:33.638Z,97141.28
2018-01-11T12:43:01.159Z,97140.98
2018-01-11T12:45:29.167Z,97139.89
2018-01-11T12:47:56.737Z,97142.34
2018-01-11T12:50:24.432Z,97140.67
2018-01-11T12:52:51.990Z,97154.87
2018-01-11T12:55:19.614Z,97150.33
2018-01-11T12:57:47.269Z,97156.54
2018-01-11T13:00:14.839Z,97160.19
2018-01-11T13:02:42.592Z,97160.13
2018-01-11T13:05:10.154Z,97167.33
2018-01-11T13:07:38.119Z,97165.52
2018-01-11T13:10:05.679Z,97163.02
2018-01-11T13:12:33.800Z,97171.41
2018-01-11T13:15:01.514Z,97168.83
2018-01-11T13:17:29.375Z,97168.98
2018-01-11T13:19:56.887Z,97175.20
2018-01-11T13:22:24.602Z,97178.62
2018-01-11T13:24:52.263Z,97176.24
2018-01-11T13:27:19.774Z,97185.61
2018-01-11T13:29:47.432Z,97179.52
2018-01-11T13:32:15.774Z,97183.18
2018-01-11T13:34:43.360Z,97193.84
2018-01-11T13:37:10.935Z,97191.38
2018-01-11T13:39:38.461Z,97193.38
2018-01-11T13:42:06.018Z,97195.22
2018-01-11T13:44:33.546Z,97200.74
2018-01-11T13:47:01.306Z,97197.50
2018-01-11T13:49:28.829Z,97199.22
2018-01-11T13:51:56.363Z,97198.31
2018-01-11T13:54:24.201Z,97200.50
2018-01-11T13:56:51.760Z,97201.27
2018-01-11T13:59:19.361Z,97207.14
2018-01-11T14:01:47.186Z,97203.92
2018-01-11T14:04:14.745Z,97204.52
2018-01-11T14:06:42.510Z,97214.39
2018-01-11T14:09:10.375Z,97211.84
2018-01-11T14:11:38.220Z,97210.42
2018-01-11T14:14:05.742Z,97215.05
2018-01-11T14:16:33.668Z,97216.75
2018-01-11T14:19:01.189Z,97224.41
2018-01-11T14:21:28.714Z,97220.98
2018-01-11T14:23:56.754Z,97230.46
2018-01-11T14:26:24.694Z,97233.02
2018-01-11T14:28:52.284Z,97231.95
2018-01-11T14:31:19.977Z,97239.52
2018-01-11T14:33:48.425Z,97242.06
2018-01-11T14:36:15.950Z,97241.27
2018-01-11T14:38:43.544Z,97242.13
2018-01-11T14:41:11.108Z,97242.48
2018-01-11T14:43:38.617Z,97246.73
2018-01-11T14:46:06.529Z,97245.36
2018-01-11T14:48:34.048Z,97254.06
2018-01-11T14:51:01.585Z,97252.52
2018-01-11T14:53:29.153Z,97258.28
2018-01-11T14:55:56.850Z,97254.06
2018-01-11T14:58:24.942Z,97262.07
2018-01-11T15:00:52.905Z,97262.41
2018-01-11T15:03:20.449Z,97270.03
2018-01-11T15:05:48.026Z,97271.11
2018-01-11T15:08:15.605Z,97270.25
2018-01-11T15:10:43.143Z,97275.48
2018-01-11T15:13:10.867Z,97274.63
2018-01-11T15:15:38.671Z,97276.24
2018-01-11T15:18:06.281Z,97279.68
2018-01-11T15:20:34.292Z,97280.20
2018-01-11T15:23:02.475Z,97280.84
2018-01-11T15:25:30.036Z,97281.69
2018-01-11T15:27:57.614Z,97285.07
2018-01-11T15:30:25.357Z,97289.17
2018-01-11T15:32:52.959Z,97289.80
2018-01-11T15:35:20.530Z,97292.45
2018-01-11T15:37:48.091Z,97298.23
2018-01-11T15:40:16.106Z,97293.80
2018-01-11T15:42:43.683Z,97298.29
2018-01-11T15:45:12.158Z,97299.38
2018-01-11T15:47:39.706Z,97307.86
2018-01-11T15:50:08.093Z,97306.98
2018-01-11T15:52:35.921Z,97313.08
2018-01-11T15:55:03.443Z,97319.75
2018-01-11T15:57:31.066Z,97323.55
2018-01-11T15:59:59.020Z,97328.38
2018-01-11T16:02:26.537Z,97335.18
2018-01-11T16:04:54.052Z,97332.91
2018-01-11T16:07:21.920Z,97331.59
2018-01-11T16:09:49.788Z,97339.31
2018-01-11T16:12:17.368Z,97342.44
2018-01-11T16:14:45.211Z,97347.78
2018-01-11T16:17:12.806Z,97350.70
2018-01-11T16:19:40.313Z,97347.44
2018-01-11T16:22:08.604Z,97358.02
2018-01-11T16:24:36.192Z,97359.80
2018-01-11T16:27:03.715Z,97365.00
2018-01-11T16:29:31.692Z,97363.09
2018-01-11T16:31:59.199Z,97361.84
2018-01-11T16:34:26.729Z,97365.58
2018-01-11T16:36:54.592Z,97370.59
2018-01-11T16:39:22.113Z,97373.59
2018-01-11T16:41:49.631Z,97376.42
2018-01-11T16:44:17.642Z,97376.46
2018-01-11T16:46:45.222Z,97377.27
2018-01-11T16:49:12.783Z,97374.33
2018-01-11T16:51:40.653Z,97380.08
2018-01-11T16:54:08.718Z,97379.67
2018-01-11T16:56:37.254Z,97381.59
2018-01-11T16:59:05.887Z,97386.07
2018-01-11T17:01:33.561Z,97385.97
2018-01-11T17:04:01.123Z,97388.33
2018-01-11T17:06:28.683Z,97386.49
2018-01-11T17:08:56.224Z,97387.25
2018-01-11T17:11:23.885Z,97390.00
2018-01-11T17:13:52.059Z,97391.55
2018-01-11T17:16:19.643Z,97395.69
2018-01-11T17:18:47.177Z,97401.06
2018-01-11T17:21:14.736Z,97406.00
2018-01-11T17:23:42.398Z,97403.48
2018-01-11T17:26:10.008Z,97414.34
2018-01-11T17:28:37.833Z,97411.23
2018-01-11T17:31:05.389Z,97416.65
2018-01-11T17:33:32.942Z,97417.17
2018-01-11T17:36:00.509Z,97421.41
2018-01-11T17:38:28.023Z,97415.06
2018-01-11T17:40:55.722Z,97429.38
2018-01-11T17:43:23.793Z,97426.45
2018-01-11T17:45:51.454Z,97432.83
2018-01-11T17:48:19.043Z,97435.88
2018-01-11T17:50:46.613Z,97436.77
2018-01-11T17:53:14.141Z,97443.98
2018-01-11T17:55:41.802Z,97444.02
2018-01-11T17:58:09.549Z,97450.89
2018-01-11T18:00:37.071Z,97449.64
2018-01-11T18:03:04.923Z,97459.05
2018-01-11T18:05:33.157Z,97459.34
2018-01-11T18:08:01.332Z,97460.30
2018-01-11T18:10:29.234Z,97464.58
2018-01-11T18:12:56.961Z,97471.50
2018-01-11T18:15:24.520Z,97462.66
2018-01-11T18:17:52.183Z,97469.70
2018-01-11T18:20:19.844Z,97471.56
2018-01-11T18:22:47.571Z,97473.28
2018-01-11T18:25:15.166Z,97477.20
2018-01-11T18:27:42.815Z,97484.98
2018-01-11T18:30:11.231Z,97486.42
2018-01-11T18:32:38.814Z,97485.06
2018-01-11T18:35:06.692Z,97482.80
2018-01-11T18:37:34.338Z,97495.11
2018-01-11T18:40:01.874Z,97492.72
2018-01-11T18:42:29.923Z,97504.53
2018-01-11T18:44:57.689Z,97504.85
2018-01-11T18:47:25.871Z,97504.80
2018-01-11T18:49:53.829Z,97507.98
2018-01-11T18:52:21.697Z,97517.19
2018-01-11T18:54:49.358Z,97510.92
2018-01-11T18:57:17.873Z,97517.94
2018-01-11T18:59:45.601Z,97524.76
2018-01-11T19:02:13.378Z,97531.33
2018-01-11T19:04:41.182Z,97524.55
2018-01-11T19:07:08.898Z,97526.27
2018-01-11T19:09:36.760Z,97532.00
2018-01-11T19:12:04.522Z,97526.25
2018-01-11T19:14:32.302Z,97529.78
2018-01-11T19:17:00.078Z,97531.98
2018-01-11T19:19:28.339Z,97533.19
2018-01-11T19:21:56.092Z,97533.95
2018-01-11T19:24:23.816Z,97540.88
2018-01-11T19:26:52.030Z,97542.05
2018-01-11T19:29:19.641Z,97544.46
2018-01-11T19:31:47.455Z,97546.66
2018-01-11T19:34:15.527Z,97540.83
2018-01-11T19:36:43.396Z,97544.48
2018-01-11T19:39:11.160Z,97549.17
2018-01-11T19:41:39.843Z,97550.59
2018-01-11T19:44:07.614Z,97552.32
2018-01-11T19:46:35.371Z,97552.31
2018-01-11T19:49:03.356Z,97547.00
2018-01-11T19:51:30.960Z,97555.28
2018-01-11T19:53:58.764Z,97555.65
2018-01-11T19:56:27.143Z,97560.05
2018-01-11T19:58:56.564Z,97558.97
2018-01-11T20:01:24.280Z,97563.15
2018-01-11T20:03:52.373Z,97559.70
2018-01-11T20:06:20.638Z,97562.66
2018-01-11T20:08:48.467Z,97569.31
2018-01-11T20:11:16.348Z,97571.41
2018-01-11T20:13:44.164Z,97569.42
2018-01-11T20:16:11.932Z,97571.17
2018-01-11T20:18:39.996Z,97579.63
2018-01-11T20:21:07.856Z,97575.34
2018-01-11T20:23:36.137Z,97578.26
2018-01-11T20:26:04.408Z,97574.61
2018-01-11T20:28:32.241Z,97576.03
2018-01-11T20:31:00.446Z,97584.94
2018-01-11T20:33:28.704Z,97582.62
2018-01-11T20:35:56.491Z,97588.08
2018-01-11T20:38:24.206Z,97589.62
2018-01-11T20:40:52.134Z,97588.62
2018-01-11T20:43:19.984Z,97589.33
2018-01-11T20:45:48.687Z,97591.80
2018-01-11T20:48:17.884Z,97597.32
2018-01-11T20:50:45.842Z,97591.98
2018-01-11T20:53:14.559Z,97589.64
2018-01-11T20:55:42.397Z,97592.97
2018-01-11T20:58:10.254Z,97592.28
2018-01-11T21:00:38.225Z,97597.02
2018-01-11T21:03:06.101Z,97601.10
2018-01-11T21:05:33.853Z,97591.78
2018-01-11T21:08:01.738Z,97594.30
2018-01-11T21:10:29.497Z,97595.19
2018-01-11T21:12:57.342Z,97596.20
2018-01-11T21:15:26.139Z,97593.48
2018-01-11T21:17:53.922Z,97595.68
2018-01-11T21:20:21.739Z,97597.94
2018-01-11T21:22:50.529Z,97595.14
2018-01-11T21:25:18.536Z,97599.92
2018-01-11T21:27:46.308Z,97606.05
2018-01-11T21:30:14.047Z,97611.68
2018-01-11T21:32:41.832Z,97615.77
2018-01-11T21:35:09.589Z,97624.23
2018-01-11T21:37:39.086Z,97617.98
2018-01-11T21:40:06.969Z,97618.45
2018-01-11T21:42:36.260Z,97621.51
2018-01-11T21:45:04.016Z,97626.47
2018-01-11T21:47:31.785Z,97621.92
2018-01-11T21:49:59.515Z,97627.22
2018-01-11T21:52:27.226Z,97638.45
2018-01-11T21:54:54.949Z,97637.72
2018-01-11T21:57:22.462Z,97642.91
2018-01-11T21:59:50.179Z,97648.26
2018-01-11T22:02:18.177Z,97644.73
2018-01-11T22:04:45.749Z,97643.41
2018-01-11T22:07:13.266Z,97649.93
2018-01-11T22:09:40.939Z,97649.41
2018-01-11T22:12:08.455Z,97649.09
2018-01-11T22:14:35.975Z,97645.00
2018-01-11T22:17:03.705Z,97650.41
2018-01-11T22:19:31.227Z,97655.55
2018-01-11T22:21:58.749Z,97656.23
2018-01-11T22:24:26.322Z,97648.75
2018-01-11T22:26:53.923Z,97654.70
2018-01-11T22:29:21.634Z,97659.12
2018-01-11T22:31:49.390Z,97660.96
2018-01-11T22:34:16.942Z,97669.72
2018-01-11T22:36:44.505Z,97665.68
2018-01-11T22:39:12.265Z,97667.69
2018-01-11T22:41:39.825Z,97674.33
2018-01-11T22:44:07.385Z,97671.17
2018-01-11T22:46:34.942Z,97673.85
2018-01-11T22:49:02.523Z,97681.30
2018-01-11T22:51:30.065Z,97684.39
2018-01-11T22:53:57.645Z,97688.30
2018-01-11T22:56:25.162Z,97687.61
2018-01-11T22:58:52.672Z,97689.55
2018-01-11T23:01:20.400Z,97695.33
2018-01-11T23:03:47.914Z,97699.32
2018-01-11T23:06:15.425Z,97701.12
2018-01-11T23:08:43.162Z,97703.05
2018-01-11T23:11:10.678Z,97701.50
2018-01-11T23:13:38.194Z,97710.05
2018-01-11T23:16:05.937Z,97706.15
2018-01-11T23:18:33.622Z,97708.95
2018-01-11T23:21:01.138Z,97708.17
2018-01-11T23:23:28.740Z,97709.09
2018-01-11T23:25:56.298Z,97707.66
2018-01-11T23:28:23.814Z,97708.16
2018-01-11T23:30:51.520Z,97712.40
2018-01-11T23:33:19.033Z,97709.88
2018-01-11T23:35:46.550Z,97708.20
2018-01-11T23:38:14.299Z,97707.58
2018-01-11T23:40:42.473Z,97716.22
2018-01-11T23:43:09.982Z,97710.21
2018-01-11T23:45:37.590Z,97707.66
2018-01-11T23:48:05.098Z,97710.67
2018-01-11T23:50:32.606Z,97706.28
2018-01-11T23:53:00.178Z,97708.63
2018-01-11T23:55:27.726Z,97710.09
2018-01-11T23:57:55.234Z,97719.16
